createdAt,value
2022-11-21T00:01:54.767Z,3.09
2022-11-21T00:06:54.799Z,2.97
2022-11-21T00:11:54.546Z,3.16
2022-11-21T00:16:57.369Z,3.27
2022-11-21T00:21:54.559Z,3.36
2022-11-21T00:26:57.545Z,3.39
2022-11-21T00:31:54.435Z,3.10
2022-11-21T00:36:54.271Z,3.40
2022-11-21T00:41:54.100Z,3.40
2022-11-21T01:11:10.324Z,3.34
2022-11-21T01:16:09.649Z,3.49
2022-11-21T01:23:50.946Z,3.64
2022-11-21T03:35:04.518Z,3.89
2022-11-21T03:40:06.832Z,3.89
2022-11-21T05:27:33.039Z,3.49
2022-11-21T05:32:40.997Z,3.44
2022-11-21T05:37:40.390Z,3.31
2022-11-21T05:54:09.844Z,3.31
2022-11-21T06:02:56.373Z,3.44
2022-11-21T06:07:55.725Z,3.58
2022-11-21T06:12:55.779Z,2.87
2022-11-21T06:17:55.641Z,3.09
2022-11-21T06:22:55.629Z,2.73
2022-11-21T06:27:55.478Z,3.12
2022-11-21T06:33:03.760Z,3.15
2022-11-21T09:52:35.056Z,4.51
2022-11-21T09:57:35.226Z,4.58
2022-11-21T10:02:34.776Z,4.33
2022-11-21T10:07:34.806Z,4.83
2022-11-21T10:12:34.920Z,4.52
2022-11-21T10:17:34.749Z,4.50
2022-11-21T10:25:01.756Z,4.69
2022-11-21T10:29:35.486Z,4.94
2022-11-21T10:34:35.465Z,5.17
2022-11-21T10:39:35.143Z,5.22
2022-11-21T10:44:35.116Z,5.28
2022-11-21T10:49:35.319Z,5.28
2022-11-21T10:54:35.257Z,5.13
2022-11-21T10:59:35.240Z,5.23
2022-11-21T22:03:58.480Z,3.44
2022-11-21T22:08:58.234Z,3.43
2022-11-21T22:13:58.247Z,3.43
2022-11-21T22:18:57.916Z,3.39
2022-11-21T22:28:58.876Z,3.21
2022-11-21T22:33:57.696Z,3.30
2022-11-21T22:38:57.749Z,3.28
2022-11-21T22:43:58.463Z,3.05
2022-11-21T22:48:57.613Z,2.87
2022-11-21T22:54:00.499Z,2.76
2022-11-21T22:58:57.435Z,2.56
2022-11-21T23:03:57.355Z,3.02
2022-11-21T23:08:57.239Z,3.02
2022-11-21T23:13:57.263Z,2.52
2022-11-21T23:18:57.233Z,2.76
2022-11-21T23:23:57.117Z,3.13
2022-11-21T23:28:57.007Z,3.24
2022-11-21T23:33:57.030Z,3.18
2022-11-21T23:38:56.860Z,3.09
2022-11-21T23:43:56.864Z,3.06
2022-11-21T23:48:56.749Z,2.98
2022-11-21T23:53:59.777Z,3.12
2022-11-21T23:58:56.769Z,2.45
